sensor_id;sensor_type;location;lat;lon;timestamp;P1;durP1;ratioP1;P2;durP2;ratioP2
41799;SDS011;27468;47.460;19.034;2022-09-09T00:04:40;2.92;;;1.40;;
41799;SDS011;27468;47.460;19.034;2022-09-09T00:09:49;1.58;;;1.35;;
41799;SDS011;27468;47.460;19.034;2022-09-09T00:15:21;1.55;;;1.40;;
41799;SDS011;27468;47.460;19.034;2022-09-09T00:28:26;2.53;;;1.65;;
41799;SDS011;27468;47.460;19.034;2022-09-09T00:30:56;2.03;;;1.50;;
41799;SDS011;27468;47.460;19.034;2022-09-09T00:33:26;1.92;;;1.58;;
41799;SDS011;27468;47.460;19.034;2022-09-09T00:35:56;3.13;;;1.70;;
41799;SDS011;27468;47.460;19.034;2022-09-09T00:43:38;2.22;;;1.70;;
41799;SDS011;27468;47.460;19.034;2022-09-09T00:46:17;1.73;;;1.30;;
41799;SDS011;27468;47.460;19.034;2022-09-09T00:51:59;1.67;;;1.45;;
41799;SDS011;27468;47.460;19.034;2022-09-09T00:57:28;1.95;;;1.60;;
41799;SDS011;27468;47.460;19.034;2022-09-09T01:05:22;2.35;;;1.92;;
41799;SDS011;27468;47.460;19.034;2022-09-09T01:08:00;1.70;;;1.60;;
41799;SDS011;27468;47.460;19.034;2022-09-09T01:10:37;2.20;;;1.90;;
41799;SDS011;27468;47.460;19.034;2022-09-09T01:13:30;1.90;;;1.80;;
41799;SDS011;27468;47.460;19.034;2022-09-09T01:15:59;2.25;;;1.80;;
41799;SDS011;27468;47.460;19.034;2022-09-09T01:18:27;2.67;;;1.88;;
41799;SDS011;27468;47.460;19.034;2022-09-09T01:26:37;2.70;;;2.47;;
41799;SDS011;27468;47.460;19.034;2022-09-09T01:29:22;3.97;;;2.58;;
41799;SDS011;27468;47.460;19.034;2022-09-09T01:31:52;3.22;;;1.98;;
41799;SDS011;27468;47.460;19.034;2022-09-09T01:34:19;1.80;;;1.70;;
41799;SDS011;27468;47.460;19.034;2022-09-09T01:39:22;2.10;;;1.90;;
41799;SDS011;27468;47.460;19.034;2022-09-09T01:41:48;2.22;;;1.75;;
41799;SDS011;27468;47.460;19.034;2022-09-09T01:44:14;2.13;;;1.70;;
41799;SDS011;27468;47.460;19.034;2022-09-09T01:46:39;2.30;;;2.05;;
41799;SDS011;27468;47.460;19.034;2022-09-09T01:49:05;2.40;;;2.20;;
41799;SDS011;27468;47.460;19.034;2022-09-09T01:51:33;3.58;;;2.63;;
41799;SDS011;27468;47.460;19.034;2022-09-09T01:54:01;3.00;;;2.70;;
41799;SDS011;27468;47.460;19.034;2022-09-09T01:56:47;3.03;;;2.72;;
41799;SDS011;27468;47.460;19.034;2022-09-09T02:04:37;3.85;;;2.13;;
41799;SDS011;27468;47.460;19.034;2022-09-09T02:07:10;2.53;;;2.33;;
41799;SDS011;27468;47.460;19.034;2022-09-09T02:09:48;2.90;;;2.05;;
41799;SDS011;27468;47.460;19.034;2022-09-09T02:12:19;2.22;;;2.00;;
41799;SDS011;27468;47.460;19.034;2022-09-09T02:14:51;1.75;;;1.25;;
41799;SDS011;27468;47.460;19.034;2022-09-09T02:19:53;1.48;;;1.38;;
41799;SDS011;27468;47.460;19.034;2022-09-09T02:22:24;1.80;;;1.50;;
41799;SDS011;27468;47.460;19.034;2022-09-09T02:24:54;1.58;;;1.23;;
41799;SDS011;27468;47.460;19.034;2022-09-09T02:27:23;1.88;;;1.20;;
41799;SDS011;27468;47.460;19.034;2022-09-09T02:29:49;1.17;;;1.00;;
41799;SDS011;27468;47.460;19.034;2022-09-09T02:32:17;1.33;;;1.20;;
41799;SDS011;27468;47.460;19.034;2022-09-09T02:34:47;1.88;;;1.27;;
41799;SDS011;27468;47.460;19.034;2022-09-09T02:37:21;2.00;;;1.65;;
41799;SDS011;27468;47.460;19.034;2022-09-09T02:39:50;1.65;;;1.55;;
41799;SDS011;27468;47.460;19.034;2022-09-09T02:42:16;1.70;;;1.60;;
41799;SDS011;27468;47.460;19.034;2022-09-09T02:44:42;3.55;;;1.98;;
41799;SDS011;27468;47.460;19.034;2022-09-09T02:47:29;2.30;;;1.83;;
41799;SDS011;27468;47.460;19.034;2022-09-09T02:58:16;4.75;;;1.80;;
41799;SDS011;27468;47.460;19.034;2022-09-09T03:00:43;2.00;;;1.80;;
41799;SDS011;27468;47.460;19.034;2022-09-09T03:03:11;2.40;;;1.80;;
41799;SDS011;27468;47.460;19.034;2022-09-09T03:05:37;2.28;;;1.67;;
41799;SDS011;27468;47.460;19.034;2022-09-09T03:08:03;1.58;;;1.30;;
41799;SDS011;27468;47.460;19.034;2022-09-09T03:10:30;2.83;;;1.60;;
41799;SDS011;27468;47.460;19.034;2022-09-09T03:12:56;3.33;;;1.40;;
41799;SDS011;27468;47.460;19.034;2022-09-09T03:15:22;1.75;;;1.30;;
41799;SDS011;27468;47.460;19.034;2022-09-09T03:17:47;1.48;;;1.38;;
41799;SDS011;27468;47.460;19.034;2022-09-09T03:20:13;1.65;;;1.40;;
41799;SDS011;27468;47.460;19.034;2022-09-09T03:22:38;2.42;;;1.67;;
41799;SDS011;27468;47.460;19.034;2022-09-09T03:25:04;1.52;;;1.42;;
41799;SDS011;27468;47.460;19.034;2022-09-09T03:27:30;2.63;;;2.08;;
41799;SDS011;27468;47.460;19.034;2022-09-09T03:29:57;2.72;;;1.90;;
41799;SDS011;27468;47.460;19.034;2022-09-09T03:32:23;1.65;;;1.55;;
41799;SDS011;27468;47.460;19.034;2022-09-09T03:34:50;1.85;;;1.75;;
41799;SDS011;27468;47.460;19.034;2022-09-09T03:37:17;2.30;;;2.10;;
41799;SDS011;27468;47.460;19.034;2022-09-09T03:39:42;2.10;;;1.90;;
41799;SDS011;27468;47.460;19.034;2022-09-09T03:42:08;2.60;;;1.90;;
41799;SDS011;27468;47.460;19.034;2022-09-09T03:44:33;2.85;;;2.08;;
41799;SDS011;27468;47.460;19.034;2022-09-09T03:46:59;3.35;;;2.42;;
41799;SDS011;27468;47.460;19.034;2022-09-09T03:49:27;2.75;;;2.55;;
41799;SDS011;27468;47.460;19.034;2022-09-09T03:51:54;3.10;;;2.85;;
41799;SDS011;27468;47.460;19.034;2022-09-09T03:54:21;3.35;;;2.90;;
41799;SDS011;27468;47.460;19.034;2022-09-09T03:56:47;3.35;;;3.05;;
41799;SDS011;27468;47.460;19.034;2022-09-09T03:59:13;4.32;;;3.00;;
41799;SDS011;27468;47.460;19.034;2022-09-09T04:01:39;5.20;;;3.40;;
41799;SDS011;27468;47.460;19.034;2022-09-09T04:04:05;4.50;;;3.58;;
41799;SDS011;27468;47.460;19.034;2022-09-09T04:06:30;5.13;;;3.60;;
41799;SDS011;27468;47.460;19.034;2022-09-09T04:08:56;5.00;;;3.50;;
41799;SDS011;27468;47.460;19.034;2022-09-09T04:11:21;4.20;;;3.50;;
41799;SDS011;27468;47.460;19.034;2022-09-09T04:13:47;4.45;;;3.50;;
41799;SDS011;27468;47.460;19.034;2022-09-09T04:16:13;4.63;;;3.60;;
41799;SDS011;27468;47.460;19.034;2022-09-09T04:18:39;4.57;;;3.63;;
41799;SDS011;27468;47.460;19.034;2022-09-09T04:21:05;5.38;;;3.97;;
41799;SDS011;27468;47.460;19.034;2022-09-09T04:23:32;4.68;;;3.80;;
41799;SDS011;27468;47.460;19.034;2022-09-09T04:25:59;4.53;;;3.60;;
41799;SDS011;27468;47.460;19.034;2022-09-09T04:28:27;6.00;;;4.28;;
41799;SDS011;27468;47.460;19.034;2022-09-09T04:30:54;6.07;;;4.43;;
41799;SDS011;27468;47.460;19.034;2022-09-09T04:33:23;5.80;;;4.63;;
41799;SDS011;27468;47.460;19.034;2022-09-09T04:35:50;6.03;;;4.35;;
41799;SDS011;27468;47.460;19.034;2022-09-09T04:38:18;5.05;;;3.88;;
41799;SDS011;27468;47.460;19.034;2022-09-09T04:40:46;5.03;;;4.05;;
41799;SDS011;27468;47.460;19.034;2022-09-09T04:43:12;5.25;;;3.72;;
41799;SDS011;27468;47.460;19.034;2022-09-09T04:45:39;4.50;;;3.08;;
41799;SDS011;27468;47.460;19.034;2022-09-09T04:48:05;3.92;;;3.47;;
41799;SDS011;27468;47.460;19.034;2022-09-09T04:50:31;3.08;;;2.72;;
41799;SDS011;27468;47.460;19.034;2022-09-09T04:52:59;4.45;;;3.30;;
41799;SDS011;27468;47.460;19.034;2022-09-09T04:55:26;4.20;;;3.13;;
41799;SDS011;27468;47.460;19.034;2022-09-09T04:57:51;4.30;;;3.40;;
41799;SDS011;27468;47.460;19.034;2022-09-09T05:00:16;5.35;;;3.55;;
41799;SDS011;27468;47.460;19.034;2022-09-09T05:02:42;4.65;;;3.50;;
41799;SDS011;27468;47.460;19.034;2022-09-09T05:05:08;4.65;;;3.28;;
41799;SDS011;27468;47.460;19.034;2022-09-09T05:07:33;4.65;;;3.17;;
41799;SDS011;27468;47.460;19.034;2022-09-09T05:09:59;3.78;;;3.30;;
41799;SDS011;27468;47.460;19.034;2022-09-09T05:12:24;7.03;;;3.40;;
41799;SDS011;27468;47.460;19.034;2022-09-09T05:14:51;3.60;;;3.20;;
41799;SDS011;27468;47.460;19.034;2022-09-09T05:17:17;3.80;;;2.88;;
41799;SDS011;27468;47.460;19.034;2022-09-09T05:19:42;3.78;;;3.08;;
41799;SDS011;27468;47.460;19.034;2022-09-09T05:22:09;4.68;;;3.05;;
41799;SDS011;27468;47.460;19.034;2022-09-09T05:24:36;4.15;;;3.00;;
41799;SDS011;27468;47.460;19.034;2022-09-09T05:27:03;3.30;;;3.00;;
41799;SDS011;27468;47.460;19.034;2022-09-09T05:29:30;3.45;;;3.15;;
41799;SDS011;27468;47.460;19.034;2022-09-09T05:31:58;4.60;;;3.42;;
41799;SDS011;27468;47.460;19.034;2022-09-09T05:34:25;3.15;;;2.83;;
41799;SDS011;27468;47.460;19.034;2022-09-09T05:36:51;3.85;;;2.95;;
41799;SDS011;27468;47.460;19.034;2022-09-09T05:39:17;4.15;;;3.20;;
41799;SDS011;27468;47.460;19.034;2022-09-09T05:41:42;3.17;;;2.92;;
41799;SDS011;27468;47.460;19.034;2022-09-09T05:44:08;4.05;;;2.80;;
41799;SDS011;27468;47.460;19.034;2022-09-09T05:46:33;4.03;;;2.85;;
41799;SDS011;27468;47.460;19.034;2022-09-09T05:48:58;3.15;;;2.78;;
41799;SDS011;27468;47.460;19.034;2022-09-09T05:51:25;3.22;;;2.88;;
41799;SDS011;27468;47.460;19.034;2022-09-09T05:53:54;3.85;;;2.92;;
41799;SDS011;27468;47.460;19.034;2022-09-09T05:56:24;2.50;;;2.30;;
41799;SDS011;27468;47.460;19.034;2022-09-09T05:58:51;4.05;;;2.40;;
41799;SDS011;27468;47.460;19.034;2022-09-09T06:01:20;1.90;;;1.80;;
41799;SDS011;27468;47.460;19.034;2022-09-09T06:03:53;2.30;;;1.95;;
41799;SDS011;27468;47.460;19.034;2022-09-09T06:06:20;3.63;;;2.70;;
41799;SDS011;27468;47.460;19.034;2022-09-09T06:08:47;3.25;;;2.10;;
41799;SDS011;27468;47.460;19.034;2022-09-09T06:11:19;2.30;;;1.80;;
41799;SDS011;27468;47.460;19.034;2022-09-09T06:13:49;2.28;;;1.60;;
41799;SDS011;27468;47.460;19.034;2022-09-09T06:16:19;2.75;;;2.05;;
41799;SDS011;27468;47.460;19.034;2022-09-09T06:18:48;2.17;;;1.65;;
41799;SDS011;27468;47.460;19.034;2022-09-09T06:21:20;3.10;;;1.65;;
41799;SDS011;27468;47.460;19.034;2022-09-09T06:23:47;2.45;;;1.80;;
41799;SDS011;27468;47.460;19.034;2022-09-09T06:26:14;1.83;;;1.73;;
41799;SDS011;27468;47.460;19.034;2022-09-09T06:28:43;2.28;;;1.67;;
41799;SDS011;27468;47.460;19.034;2022-09-09T06:31:11;2.83;;;1.83;;
41799;SDS011;27468;47.460;19.034;2022-09-09T06:33:38;3.00;;;2.05;;
41799;SDS011;27468;47.460;19.034;2022-09-09T06:36:07;2.25;;;1.90;;
41799;SDS011;27468;47.460;19.034;2022-09-09T06:38:36;1.77;;;1.67;;
41799;SDS011;27468;47.460;19.034;2022-09-09T06:41:01;2.03;;;1.80;;
41799;SDS011;27468;47.460;19.034;2022-09-09T06:43:27;3.83;;;1.83;;
41799;SDS011;27468;47.460;19.034;2022-09-09T06:46:00;2.55;;;1.50;;
41799;SDS011;27468;47.460;19.034;2022-09-09T06:48:28;2.45;;;1.70;;
41799;SDS011;27468;47.460;19.034;2022-09-09T06:51:00;1.50;;;1.40;;
41799;SDS011;27468;47.460;19.034;2022-09-09T06:53:26;1.70;;;1.60;;
41799;SDS011;27468;47.460;19.034;2022-09-09T06:55:52;3.97;;;1.75;;
41799;SDS011;27468;47.460;19.034;2022-09-09T06:58:17;2.90;;;1.70;;
41799;SDS011;27468;47.460;19.034;2022-09-09T07:00:43;2.45;;;1.67;;
41799;SDS011;27468;47.460;19.034;2022-09-09T07:03:09;4.57;;;1.73;;
41799;SDS011;27468;47.460;19.034;2022-09-09T07:05:35;3.55;;;1.67;;
41799;SDS011;27468;47.460;19.034;2022-09-09T07:08:00;3.03;;;2.00;;
41799;SDS011;27468;47.460;19.034;2022-09-09T07:10:27;2.92;;;2.28;;
41799;SDS011;27468;47.460;19.034;2022-09-09T07:12:52;2.78;;;2.08;;
41799;SDS011;27468;47.460;19.034;2022-09-09T07:15:18;5.07;;;2.15;;
41799;SDS011;27468;47.460;19.034;2022-09-09T07:17:44;4.25;;;2.10;;
41799;SDS011;27468;47.460;19.034;2022-09-09T07:20:10;5.57;;;2.42;;
41799;SDS011;27468;47.460;19.034;2022-09-09T07:22:36;5.40;;;2.10;;
41799;SDS011;27468;47.460;19.034;2022-09-09T07:25:02;2.65;;;1.90;;
41799;SDS011;27468;47.460;19.034;2022-09-09T07:27:28;2.83;;;1.88;;
41799;SDS011;27468;47.460;19.034;2022-09-09T07:29:53;2.67;;;1.85;;
41799;SDS011;27468;47.460;19.034;2022-09-09T07:32:19;3.08;;;1.73;;
41799;SDS011;27468;47.460;19.034;2022-09-09T07:34:45;3.42;;;1.70;;
41799;SDS011;27468;47.460;19.034;2022-09-09T07:37:12;2.30;;;1.80;;
41799;SDS011;27468;47.460;19.034;2022-09-09T07:39:38;2.65;;;1.85;;
41799;SDS011;27468;47.460;19.034;2022-09-09T07:42:04;2.47;;;2.00;;
41799;SDS011;27468;47.460;19.034;2022-09-09T07:44:30;2.20;;;2.00;;
41799;SDS011;27468;47.460;19.034;2022-09-09T07:46:59;2.65;;;1.70;;
41799;SDS011;27468;47.460;19.034;2022-09-09T07:49:25;2.13;;;1.80;;
41799;SDS011;27468;47.460;19.034;2022-09-09T07:51:50;3.33;;;1.90;;
41799;SDS011;27468;47.460;19.034;2022-09-09T07:54:17;2.65;;;1.80;;
41799;SDS011;27468;47.460;19.034;2022-09-09T07:56:45;3.45;;;1.77;;
41799;SDS011;27468;47.460;19.034;2022-09-09T07:59:12;4.03;;;1.92;;
41799;SDS011;27468;47.460;19.034;2022-09-09T08:01:42;3.65;;;1.90;;
41799;SDS011;27468;47.460;19.034;2022-09-09T08:04:11;1.98;;;1.42;;
41799;SDS011;27468;47.460;19.034;2022-09-09T08:06:40;2.47;;;1.77;;
41799;SDS011;27468;47.460;19.034;2022-09-09T08:09:08;1.17;;;1.08;;
41799;SDS011;27468;47.460;19.034;2022-09-09T08:11:35;1.30;;;1.10;;
41799;SDS011;27468;47.460;19.034;2022-09-09T08:14:01;1.30;;;1.20;;
41799;SDS011;27468;47.460;19.034;2022-09-09T08:16:31;2.08;;;1.58;;
41799;SDS011;27468;47.460;19.034;2022-09-09T08:19:01;1.85;;;1.20;;
41799;SDS011;27468;47.460;19.034;2022-09-09T08:21:28;1.50;;;1.20;;
41799;SDS011;27468;47.460;19.034;2022-09-09T08:23:57;4.78;;;1.67;;
41799;SDS011;27468;47.460;19.034;2022-09-09T08:26:25;3.45;;;1.52;;
41799;SDS011;27468;47.460;19.034;2022-09-09T08:28:53;3.83;;;1.30;;
41799;SDS011;27468;47.460;19.034;2022-09-09T08:31:22;1.65;;;1.30;;
41799;SDS011;27468;47.460;19.034;2022-09-09T08:33:50;2.25;;;1.13;;
41799;SDS011;27468;47.460;19.034;2022-09-09T08:36:17;1.10;;;1.00;;
41799;SDS011;27468;47.460;19.034;2022-09-09T08:38:51;1.15;;;1.05;;
41799;SDS011;27468;47.460;19.034;2022-09-09T08:43:58;2.17;;;1.10;;
41799;SDS011;27468;47.460;19.034;2022-09-09T08:54:59;1.17;;;0.80;;
41799;SDS011;27468;47.460;19.034;2022-09-09T08:57:37;1.13;;;1.00;;
41799;SDS011;27468;47.460;19.034;2022-09-09T09:00:04;1.80;;;1.20;;
41799;SDS011;27468;47.460;19.034;2022-09-09T09:02:44;1.85;;;1.20;;
41799;SDS011;27468;47.460;19.034;2022-09-09T09:05:28;1.10;;;0.90;;
41799;SDS011;27468;47.460;19.034;2022-09-09T09:13:01;1.17;;;1.02;;
41799;SDS011;27468;47.460;19.034;2022-09-09T09:15:31;1.92;;;1.30;;
41799;SDS011;27468;47.460;19.034;2022-09-09T09:18:02;2.25;;;1.30;;
41799;SDS011;27468;47.460;19.034;2022-09-09T09:23:09;2.13;;;1.10;;
41799;SDS011;27468;47.460;19.034;2022-09-09T09:37:01;2.78;;;1.10;;
41799;SDS011;27468;47.460;19.034;2022-09-09T09:41:53;2.83;;;1.20;;
41799;SDS011;27468;47.460;19.034;2022-09-09T09:44:29;1.52;;;0.98;;
41799;SDS011;27468;47.460;19.034;2022-09-09T09:49:31;0.90;;;0.77;;
41799;SDS011;27468;47.460;19.034;2022-09-09T09:52:06;1.30;;;0.80;;
41799;SDS011;27468;47.460;19.034;2022-09-09T09:54:41;0.60;;;0.50;;
41799;SDS011;27468;47.460;19.034;2022-09-09T09:57:16;1.20;;;0.50;;
41799;SDS011;27468;47.460;19.034;2022-09-09T09:59:43;0.60;;;0.60;;
41799;SDS011;27468;47.460;19.034;2022-09-09T10:05:05;0.73;;;0.70;;
41799;SDS011;27468;47.460;19.034;2022-09-09T10:07:31;0.88;;;0.75;;
41799;SDS011;27468;47.460;19.034;2022-09-09T10:09:57;1.33;;;0.70;;
41799;SDS011;27468;47.460;19.034;2022-09-09T10:24:16;0.63;;;0.63;;
41799;SDS011;27468;47.460;19.034;2022-09-09T10:27:01;0.60;;;0.60;;
41799;SDS011;27468;47.460;19.034;2022-09-09T10:29:46;2.50;;;0.60;;
41799;SDS011;27468;47.460;19.034;2022-09-09T10:35:02;1.45;;;0.70;;
41799;SDS011;27468;47.460;19.034;2022-09-09T10:37:46;0.68;;;0.52;;
41799;SDS011;27468;47.460;19.034;2022-09-09T10:52:01;1.83;;;0.70;;
41799;SDS011;27468;47.460;19.034;2022-09-09T11:00:31;1.00;;;0.70;;
41799;SDS011;27468;47.460;19.034;2022-09-09T11:03:05;1.80;;;0.57;;
41799;SDS011;27468;47.460;19.034;2022-09-09T11:05:43;0.82;;;0.50;;
41799;SDS011;27468;47.460;19.034;2022-09-09T11:08:19;0.60;;;0.60;;
41799;SDS011;27468;47.460;19.034;2022-09-09T11:11:08;0.93;;;0.60;;
41799;SDS011;27468;47.460;19.034;2022-09-09T11:21:49;0.60;;;0.60;;
41799;SDS011;27468;47.460;19.034;2022-09-09T11:26:52;0.70;;;0.70;;
41799;SDS011;27468;47.460;19.034;2022-09-09T11:37:04;1.17;;;0.60;;
41799;SDS011;27468;47.460;19.034;2022-09-09T11:39:48;1.30;;;0.80;;
41799;SDS011;27468;47.460;19.034;2022-09-09T11:42:35;0.70;;;0.70;;
41799;SDS011;27468;47.460;19.034;2022-09-09T11:47:59;0.70;;;0.70;;
41799;SDS011;27468;47.460;19.034;2022-09-09T11:52:51;1.42;;;0.90;;
41799;SDS011;27468;47.460;19.034;2022-09-09T11:55:29;1.10;;;0.90;;
41799;SDS011;27468;47.460;19.034;2022-09-09T11:58:01;0.75;;;0.73;;
41799;SDS011;27468;47.460;19.034;2022-09-09T12:01:12;1.25;;;0.90;;
41799;SDS011;27468;47.460;19.034;2022-09-09T12:08:50;1.33;;;0.80;;
41799;SDS011;27468;47.460;19.034;2022-09-09T12:11:24;1.45;;;1.00;;
41799;SDS011;27468;47.460;19.034;2022-09-09T12:13:57;1.00;;;0.90;;
41799;SDS011;27468;47.460;19.034;2022-09-09T12:21:45;1.00;;;1.00;;
41799;SDS011;27468;47.460;19.034;2022-09-09T12:24:23;1.00;;;1.00;;
41799;SDS011;27468;47.460;19.034;2022-09-09T12:27:11;1.13;;;0.82;;
41799;SDS011;27468;47.460;19.034;2022-09-09T12:32:24;0.95;;;0.90;;
41799;SDS011;27468;47.460;19.034;2022-09-09T12:35:02;1.08;;;0.85;;
41799;SDS011;27468;47.460;19.034;2022-09-09T12:42:52;0.70;;;0.70;;
41799;SDS011;27468;47.460;19.034;2022-09-09T12:45:21;2.08;;;0.90;;
41799;SDS011;27468;47.460;19.034;2022-09-09T12:47:52;0.93;;;0.93;;
41799;SDS011;27468;47.460;19.034;2022-09-09T12:52:51;1.15;;;1.05;;
41799;SDS011;27468;47.460;19.034;2022-09-09T12:55:21;1.17;;;1.08;;
41799;SDS011;27468;47.460;19.034;2022-09-09T12:57:51;2.10;;;1.10;;
41799;SDS011;27468;47.460;19.034;2022-09-09T13:00:23;1.92;;;1.10;;
41799;SDS011;27468;47.460;19.034;2022-09-09T13:02:50;0.85;;;0.85;;
41799;SDS011;27468;47.460;19.034;2022-09-09T13:05:22;2.05;;;1.05;;
41799;SDS011;27468;47.460;19.034;2022-09-09T13:07:49;2.10;;;1.05;;
41799;SDS011;27468;47.460;19.034;2022-09-09T13:10:24;0.90;;;0.90;;
41799;SDS011;27468;47.460;19.034;2022-09-09T13:12:53;1.20;;;0.90;;
41799;SDS011;27468;47.460;19.034;2022-09-09T13:15:23;1.35;;;0.98;;
41799;SDS011;27468;47.460;19.034;2022-09-09T13:17:58;0.80;;;0.80;;
41799;SDS011;27468;47.460;19.034;2022-09-09T13:20:28;1.13;;;0.90;;
41799;SDS011;27468;47.460;19.034;2022-09-09T13:22:54;1.00;;;0.90;;
41799;SDS011;27468;47.460;19.034;2022-09-09T13:25:24;2.15;;;0.93;;
41799;SDS011;27468;47.460;19.034;2022-09-09T13:32:48;1.05;;;0.70;;
41799;SDS011;27468;47.460;19.034;2022-09-09T13:35:26;2.08;;;1.00;;
41799;SDS011;27468;47.460;19.034;2022-09-09T13:37:52;1.52;;;0.90;;
41799;SDS011;27468;47.460;19.034;2022-09-09T13:40:19;1.00;;;0.70;;
41799;SDS011;27468;47.460;19.034;2022-09-09T13:42:46;1.50;;;1.40;;
41799;SDS011;27468;47.460;19.034;2022-09-09T13:45:19;1.13;;;0.60;;
41799;SDS011;27468;47.460;19.034;2022-09-09T13:47:46;1.80;;;0.80;;
41799;SDS011;27468;47.460;19.034;2022-09-09T13:52:54;1.02;;;0.80;;
41799;SDS011;27468;47.460;19.034;2022-09-09T13:55:23;1.50;;;0.80;;
41799;SDS011;27468;47.460;19.034;2022-09-09T13:57:54;0.88;;;0.77;;
41799;SDS011;27468;47.460;19.034;2022-09-09T14:00:21;1.38;;;0.80;;
41799;SDS011;27468;47.460;19.034;2022-09-09T14:02:50;0.80;;;0.80;;
41799;SDS011;27468;47.460;19.034;2022-09-09T14:05:17;1.13;;;0.82;;
41799;SDS011;27468;47.460;19.034;2022-09-09T14:07:43;1.02;;;0.93;;
41799;SDS011;27468;47.460;19.034;2022-09-09T14:10:10;2.17;;;0.95;;
41799;SDS011;27468;47.460;19.034;2022-09-09T14:12:37;1.15;;;0.70;;
41799;SDS011;27468;47.460;19.034;2022-09-09T14:15:03;1.48;;;0.70;;
41799;SDS011;27468;47.460;19.034;2022-09-09T14:17:29;0.80;;;0.70;;
41799;SDS011;27468;47.460;19.034;2022-09-09T14:19:56;0.80;;;0.80;;
41799;SDS011;27468;47.460;19.034;2022-09-09T14:22:22;1.00;;;0.80;;
41799;SDS011;27468;47.460;19.034;2022-09-09T14:24:48;0.80;;;0.73;;
41799;SDS011;27468;47.460;19.034;2022-09-09T14:27:14;1.00;;;0.90;;
41799;SDS011;27468;47.460;19.034;2022-09-09T14:29:40;0.90;;;0.90;;
41799;SDS011;27468;47.460;19.034;2022-09-09T14:32:05;1.17;;;0.65;;
41799;SDS011;27468;47.460;19.034;2022-09-09T14:34:30;1.00;;;0.90;;
41799;SDS011;27468;47.460;19.034;2022-09-09T14:36:57;1.30;;;1.20;;
41799;SDS011;27468;47.460;19.034;2022-09-09T14:39:23;1.40;;;1.00;;
41799;SDS011;27468;47.460;19.034;2022-09-09T14:41:48;1.38;;;0.80;;
41799;SDS011;27468;47.460;19.034;2022-09-09T14:44:14;1.98;;;1.05;;
41799;SDS011;27468;47.460;19.034;2022-09-09T14:46:40;2.90;;;1.77;;
41799;SDS011;27468;47.460;19.034;2022-09-09T14:49:07;1.30;;;0.80;;
41799;SDS011;27468;47.460;19.034;2022-09-09T14:51:32;1.92;;;0.88;;
41799;SDS011;27468;47.460;19.034;2022-09-09T14:53:59;1.55;;;0.80;;
41799;SDS011;27468;47.460;19.034;2022-09-09T14:56:26;1.20;;;0.90;;
41799;SDS011;27468;47.460;19.034;2022-09-09T14:58:54;1.15;;;1.08;;
41799;SDS011;27468;47.460;19.034;2022-09-09T15:01:21;1.50;;;0.90;;
41799;SDS011;27468;47.460;19.034;2022-09-09T15:03:57;1.10;;;0.93;;
41799;SDS011;27468;47.460;19.034;2022-09-09T15:06:24;0.98;;;0.80;;
41799;SDS011;27468;47.460;19.034;2022-09-09T15:08:52;0.80;;;0.80;;
41799;SDS011;27468;47.460;19.034;2022-09-09T15:11:18;1.00;;;0.90;;
41799;SDS011;27468;47.460;19.034;2022-09-09T15:13:45;1.33;;;0.80;;
41799;SDS011;27468;47.460;19.034;2022-09-09T15:18:41;1.10;;;0.90;;
41799;SDS011;27468;47.460;19.034;2022-09-09T15:21:13;1.88;;;0.70;;
41799;SDS011;27468;47.460;19.034;2022-09-09T15:23:40;1.23;;;0.98;;
41799;SDS011;27468;47.460;19.034;2022-09-09T15:26:06;1.15;;;0.82;;
41799;SDS011;27468;47.460;19.034;2022-09-09T15:28:33;0.90;;;0.70;;
41799;SDS011;27468;47.460;19.034;2022-09-09T15:31:12;1.45;;;0.80;;
41799;SDS011;27468;47.460;19.034;2022-09-09T15:33:48;0.77;;;0.60;;
41799;SDS011;27468;47.460;19.034;2022-09-09T15:36:22;1.00;;;0.90;;
41799;SDS011;27468;47.460;19.034;2022-09-09T15:38:49;1.23;;;0.90;;
41799;SDS011;27468;47.460;19.034;2022-09-09T15:41:16;1.60;;;0.85;;
41799;SDS011;27468;47.460;19.034;2022-09-09T15:43:43;1.05;;;0.75;;
41799;SDS011;27468;47.460;19.034;2022-09-09T15:46:32;0.85;;;0.60;;
41799;SDS011;27468;47.460;19.034;2022-09-09T15:49:09;1.35;;;0.90;;
41799;SDS011;27468;47.460;19.034;2022-09-09T15:51:43;1.15;;;0.80;;
41799;SDS011;27468;47.460;19.034;2022-09-09T15:56:42;1.23;;;0.90;;
41799;SDS011;27468;47.460;19.034;2022-09-09T15:59:08;1.88;;;0.90;;
41799;SDS011;27468;47.460;19.034;2022-09-09T16:01:34;1.70;;;0.90;;
41799;SDS011;27468;47.460;19.034;2022-09-09T16:04:00;0.95;;;0.80;;
41799;SDS011;27468;47.460;19.034;2022-09-09T16:06:26;1.67;;;0.80;;
41799;SDS011;27468;47.460;19.034;2022-09-09T16:08:54;1.45;;;0.77;;
41799;SDS011;27468;47.460;19.034;2022-09-09T16:13:48;1.88;;;0.93;;
41799;SDS011;27468;47.460;19.034;2022-09-09T16:16:16;1.15;;;0.65;;
41799;SDS011;27468;47.460;19.034;2022-09-09T16:18:45;1.92;;;0.90;;
41799;SDS011;27468;47.460;19.034;2022-09-09T16:21:16;2.05;;;0.90;;
41799;SDS011;27468;47.460;19.034;2022-09-09T16:23:44;0.80;;;0.77;;
41799;SDS011;27468;47.460;19.034;2022-09-09T16:26:10;1.58;;;1.00;;
41799;SDS011;27468;47.460;19.034;2022-09-09T16:28:37;1.90;;;0.93;;
41799;SDS011;27468;47.460;19.034;2022-09-09T16:31:04;2.40;;;1.13;;
41799;SDS011;27468;47.460;19.034;2022-09-09T16:33:31;1.60;;;1.08;;
41799;SDS011;27468;47.460;19.034;2022-09-09T16:35:56;1.10;;;1.00;;
41799;SDS011;27468;47.460;19.034;2022-09-09T16:38:22;1.70;;;0.98;;
41799;SDS011;27468;47.460;19.034;2022-09-09T16:40:47;1.52;;;1.00;;
41799;SDS011;27468;47.460;19.034;2022-09-09T16:43:15;1.00;;;0.80;;
41799;SDS011;27468;47.460;19.034;2022-09-09T16:45:44;1.88;;;0.90;;
41799;SDS011;27468;47.460;19.034;2022-09-09T16:48:10;0.85;;;0.85;;
41799;SDS011;27468;47.460;19.034;2022-09-09T16:50:37;1.83;;;1.10;;
41799;SDS011;27468;47.460;19.034;2022-09-09T16:53:04;2.65;;;1.10;;
41799;SDS011;27468;47.460;19.034;2022-09-09T16:55:37;2.47;;;1.20;;
41799;SDS011;27468;47.460;19.034;2022-09-09T16:58:07;3.00;;;1.10;;
41799;SDS011;27468;47.460;19.034;2022-09-09T17:00:35;3.95;;;1.80;;
41799;SDS011;27468;47.460;19.034;2022-09-09T17:03:00;4.28;;;1.58;;
41799;SDS011;27468;47.460;19.034;2022-09-09T17:05:26;2.63;;;1.60;;
41799;SDS011;27468;47.460;19.034;2022-09-09T17:07:51;2.63;;;1.38;;
41799;SDS011;27468;47.460;19.034;2022-09-09T17:10:18;1.95;;;1.20;;
41799;SDS011;27468;47.460;19.034;2022-09-09T17:12:44;3.17;;;1.77;;
41799;SDS011;27468;47.460;19.034;2022-09-09T17:15:11;2.33;;;1.83;;
41799;SDS011;27468;47.460;19.034;2022-09-09T17:17:36;6.93;;;3.67;;
41799;SDS011;27468;47.460;19.034;2022-09-09T17:20:02;8.88;;;3.92;;
41799;SDS011;27468;47.460;19.034;2022-09-09T17:22:27;5.30;;;2.55;;
41799;SDS011;27468;47.460;19.034;2022-09-09T17:24:53;4.47;;;2.10;;
41799;SDS011;27468;47.460;19.034;2022-09-09T17:27:19;3.80;;;2.22;;
41799;SDS011;27468;47.460;19.034;2022-09-09T17:29:45;5.78;;;2.42;;
41799;SDS011;27468;47.460;19.034;2022-09-09T17:32:11;4.30;;;2.47;;
41799;SDS011;27468;47.460;19.034;2022-09-09T17:34:37;4.70;;;1.65;;
41799;SDS011;27468;47.460;19.034;2022-09-09T17:37:03;3.70;;;1.90;;
41799;SDS011;27468;47.460;19.034;2022-09-09T17:39:30;4.22;;;1.67;;
41799;SDS011;27468;47.460;19.034;2022-09-09T17:41:56;3.60;;;1.58;;
41799;SDS011;27468;47.460;19.034;2022-09-09T17:44:22;3.15;;;1.80;;
41799;SDS011;27468;47.460;19.034;2022-09-09T17:46:47;3.78;;;1.85;;
41799;SDS011;27468;47.460;19.034;2022-09-09T17:49:14;4.20;;;1.90;;
41799;SDS011;27468;47.460;19.034;2022-09-09T17:51:41;4.30;;;1.92;;
41799;SDS011;27468;47.460;19.034;2022-09-09T17:54:08;4.82;;;1.90;;